Time;durP1;ratioP1;P1;durP2;ratioP2;P2;SDS_P1;SDS_P2;PMS_P1;PMS_P2;Temp;Humidity;BMP_temperature;BMP_pressure;BME280_temperature;BME280_humidity;BME280_pressure;Samples;Min_cycle;Max_cycle;Signal;HPM_P1;HPM_P2
2021/04/20 00:01:18;;;;;;;11.20;7.45;;;;;14.10;101751.00;;;;5089685;28;20217;-78
2021/04/20 00:03:47;;;;;;;12.55;7.93;;;;;14.10;101750.00;;;;5089555;28;20583;-79
2021/04/20 00:06:14;;;;;;;9.68;6.68;;;;;14.10;101751.00;;;;5089405;28;20738;-79
2021/04/20 00:08:41;;;;;;;10.38;8.25;;;;;14.10;101747.00;;;;5088652;28;20198;-78
2021/04/20 00:11:09;;;;;;;12.63;8.20;;;;;14.10;101745.00;;;;5078822;28;20686;-79
2021/04/20 00:13:36;;;;;;;10.88;7.82;;;;;14.10;101748.00;;;;5089681;28;20690;-78
2021/04/20 00:16:04;;;;;;;11.38;8.57;;;;;14.10;101745.00;;;;5083080;28;20206;-79
2021/04/20 00:18:31;;;;;;;11.85;8.38;;;;;14.10;101748.00;;;;5069561;28;20242;-79
2021/04/20 00:20:57;;;;;;;13.93;8.63;;;;;14.10;101734.00;;;;5086637;28;20285;-78
2021/04/20 00:23:24;;;;;;;11.52;8.30;;;;;14.10;101744.00;;;;5079961;28;20190;-78
2021/04/20 00:25:51;;;;;;;11.07;8.10;;;;;14.10;101737.00;;;;5069079;28;20198;-79
2021/04/20 00:28:25;;;;;;;12.98;8.70;;;;;14.10;101732.00;;;;5084410;28;20988;-79
2021/04/20 00:30:52;;;;;;;13.35;9.25;;;;;14.20;101730.00;;;;5088676;28;20202;-78
2021/04/20 00:33:20;;;;;;;12.10;8.23;;;;;14.20;101728.00;;;;5089196;28;20202;-78
2021/04/20 00:35:47;;;;;;;10.73;8.15;;;;;14.20;101723.00;;;;5088261;28;20198;-78
2021/04/20 00:38:14;;;;;;;13.88;8.80;;;;;14.30;101731.00;;;;5089560;28;20229;-78
2021/04/20 00:40:41;;;;;;;12.45;9.57;;;;;14.30;101720.00;;;;5086585;28;20194;-78
2021/04/20 00:43:08;;;;;;;13.18;8.23;;;;;14.30;101724.00;;;;5089077;28;20205;-79
2021/04/20 00:45:36;;;;;;;11.73;8.57;;;;;14.30;101725.00;;;;5074288;28;20203;-79
2021/04/20 00:48:05;;;;;;;13.00;8.25;;;;;14.30;101717.00;;;;5068028;28;20255;-79
2021/04/20 00:50:34;;;;;;;11.85;8.40;;;;;14.30;101723.00;;;;5083591;28;20233;-78
2021/04/20 00:53:01;;;;;;;13.20;8.95;;;;;14.40;101722.00;;;;5072427;28;20249;-78
2021/04/20 00:55:28;;;;;;;11.93;8.50;;;;;14.40;101723.00;;;;5074318;28;20698;-78
2021/04/20 00:57:55;;;;;;;10.82;7.95;;;;;14.40;101727.00;;;;5069563;28;20230;-78
2021/04/20 01:00:24;;;;;;;15.90;9.77;;;;;14.40;101726.00;;;;5088278;28;20584;-79
2021/04/20 01:02:51;;;;;;;12.85;8.75;;;;;14.50;101726.00;;;;5088079;28;20581;-78
2021/04/20 01:05:20;;;;;;;13.32;9.68;;;;;14.50;101723.00;;;;5088545;28;20206;-79
2021/04/20 01:07:48;;;;;;;12.60;8.68;;;;;14.50;101725.00;;;;5077783;28;20222;-78
2021/04/20 01:10:16;;;;;;;11.90;8.52;;;;;14.50;101721.00;;;;5069625;28;20591;-78
2021/04/20 01:12:44;;;;;;;12.10;8.65;;;;;14.50;101717.00;;;;5085573;28;20555;-79
2021/04/20 01:15:13;;;;;;;13.73;9.38;;;;;14.50;101722.00;;;;5082903;28;20675;-78
2021/04/20 01:17:40;;;;;;;13.27;8.52;;;;;14.50;101712.00;;;;5068388;28;20245;-78
2021/04/20 01:20:10;;;;;;;12.40;8.35;;;;;14.50;101709.00;;;;5074807;28;20183;-79
2021/04/20 01:22:39;;;;;;;12.57;8.60;;;;;14.50;101716.00;;;;5088509;28;20213;-79
2021/04/20 01:25:09;;;;;;;11.38;8.85;;;;;14.50;101711.00;;;;5073514;28;20203;-79
2021/04/20 01:27:37;;;;;;;12.90;9.13;;;;;14.50;101715.00;;;;5083319;28;20608;-79
2021/04/20 01:30:06;;;;;;;12.70;8.90;;;;;14.60;101712.00;;;;5086722;28;20198;-79
2021/04/20 01:32:35;;;;;;;12.95;9.13;;;;;14.60;101707.00;;;;5088825;28;20198;-78
2021/04/20 01:35:02;;;;;;;12.00;9.07;;;;;14.60;101702.00;;;;5087458;28;20207;-79
2021/04/20 01:37:29;;;;;;;12.70;9.00;;;;;14.60;101699.00;;;;5074538;28;20576;-78
2021/04/20 01:39:56;;;;;;;13.88;9.63;;;;;14.60;101708.00;;;;5075262;28;20546;-79
2021/04/20 01:42:23;;;;;;;17.13;9.50;;;;;14.60;101699.00;;;;5087285;28;20198;-79
2021/04/20 01:44:51;;;;;;;13.25;9.10;;;;;14.60;101704.00;;;;5086851;28;20206;-79
2021/04/20 01:47:18;;;;;;;10.45;7.88;;;;;14.60;101695.00;;;;5079485;28;20258;-79
2021/04/20 01:49:44;;;;;;;12.02;8.32;;;;;14.60;101697.00;;;;5080256;28;20544;-79
2021/04/20 01:52:12;;;;;;;10.63;7.57;;;;;14.50;101696.00;;;;5075924;28;20205;-79
2021/04/20 01:54:40;;;;;;;12.48;8.70;;;;;14.50;101701.00;;;;5087160;28;20202;-79
2021/04/20 01:57:09;;;;;;;12.00;8.73;;;;;14.50;101692.00;;;;5085929;28;20228;-78
2021/04/20 01:59:37;;;;;;;13.55;8.10;;;;;14.40;101694.00;;;;5069450;28;20241;-79
2021/04/20 02:02:04;;;;;;;13.07;8.38;;;;;14.40;101702.00;;;;5082421;28;20198;-79
2021/04/20 02:04:31;;;;;;;12.88;9.13;;;;;14.30;101705.00;;;;5086609;28;20200;-78
2021/04/20 02:06:59;;;;;;;13.10;8.35;;;;;14.30;101698.00;;;;5088228;28;20672;-78
2021/04/20 02:09:26;;;;;;;10.77;8.32;;;;;14.30;101698.00;;;;5076150;28;20202;-78
2021/04/20 02:11:53;;;;;;;11.60;7.50;;;;;14.20;101694.00;;;;5089075;28;20198;-79
2021/04/20 02:14:19;;;;;;;12.25;8.60;;;;;14.20;101699.00;;;;5091069;28;20695;-78
2021/04/20 02:16:47;;;;;;;13.55;8.57;;;;;14.10;101695.00;;;;5074286;28;20597;-79
2021/04/20 02:19:15;;;;;;;14.20;8.98;;;;;14.00;101704.00;;;;5072504;28;20233;-78
2021/04/20 02:21:43;;;;;;;14.75;8.82;;;;;14.00;101698.00;;;;5081796;28;20209;-78
2021/04/20 02:24:12;;;;;;;11.02;7.90;;;;;13.90;101698.00;;;;5091180;28;20346;-78
2021/04/20 02:26:40;;;;;;;10.13;7.70;;;;;13.90;101699.00;;;;5089979;28;20692;-78
2021/04/20 02:29:09;;;;;;;12.20;8.50;;;;;13.80;101698.00;;;;5076087;28;20199;-78
2021/04/20 02:31:37;;;;;;;14.13;10.20;;;;;13.80;101697.00;;;;5081334;28;20555;-79
2021/04/20 02:34:05;;;;;;;13.05;8.88;;;;;13.70;101695.00;;;;5080197;28;20251;-78
2021/04/20 02:36:35;;;;;;;11.55;8.25;;;;;13.70;101698.00;;;;5089707;28;20198;-78
2021/04/20 02:39:03;;;;;;;11.20;7.63;;;;;13.60;101701.00;;;;5090445;28;20226;-78
2021/04/20 02:41:31;;;;;;;12.45;8.82;;;;;13.60;101693.00;;;;5090571;28;20187;-78
2021/04/20 02:43:59;;;;;;;12.57;8.95;;;;;13.50;101692.00;;;;5091047;28;20247;-78
2021/04/20 02:46:26;;;;;;;12.00;8.15;;;;;13.50;101694.00;;;;5089989;28;20198;-78
2021/04/20 02:48:53;;;;;;;13.02;9.10;;;;;13.40;101691.00;;;;5085208;28;20197;-78
2021/04/20 02:51:21;;;;;;;11.88;8.10;;;;;13.30;101694.00;;;;5090028;28;20232;-78
2021/04/20 02:53:48;;;;;;;13.85;9.18;;;;;13.30;101685.00;;;;5090639;28;20472;-77
2021/04/20 02:56:17;;;;;;;14.05;9.10;;;;;13.30;101684.00;;;;5090316;28;22002;-78
2021/04/20 02:58:45;;;;;;;14.25;8.65;;;;;13.20;101687.00;;;;5091411;28;20222;-78
2021/04/20 03:01:18;;;;;;;11.05;8.30;;;;;13.20;101684.00;;;;5090195;28;20210;-78
2021/04/20 03:03:46;;;;;;;13.57;9.23;;;;;13.10;101682.00;;;;5091107;28;20195;-78
2021/04/20 03:06:15;;;;;;;13.25;8.65;;;;;13.10;101680.00;;;;5089876;28;20255;-78
2021/04/20 03:08:43;;;;;;;13.13;8.73;;;;;13.00;101684.00;;;;5090873;28;20198;-78
2021/04/20 03:11:15;;;;;;;15.38;9.02;;;;;13.00;101683.00;;;;5087837;28;20206;-78
2021/04/20 03:13:44;;;;;;;13.73;9.25;;;;;13.00;101682.00;;;;5090832;28;20644;-78
2021/04/20 03:16:12;;;;;;;12.77;8.60;;;;;12.90;101683.00;;;;5075206;28;20206;-78
2021/04/20 03:18:39;;;;;;;17.08;9.45;;;;;12.90;101681.00;;;;5069001;28;20234;-78
2021/04/20 03:21:11;;;;;;;13.52;8.52;;;;;12.80;101672.00;;;;5088670;28;20198;-78
2021/04/20 03:23:39;;;;;;;13.13;8.18;;;;;12.80;101677.00;;;;5090619;28;20194;-78
2021/04/20 03:26:36;;;;;;;13.52;8.70;;;;;12.60;101674.00;;;;5089162;28;20194;-78
2021/04/20 03:29:05;;;;;;;11.48;8.25;;;;;12.70;101670.00;;;;5089788;28;20202;-78
2021/04/20 03:31:32;;;;;;;11.50;8.38;;;;;12.70;101677.00;;;;5072664;28;20206;-78
2021/04/20 03:34:03;;;;;;;12.48;8.95;;;;;12.60;101678.00;;;;5071306;28;20744;-78
2021/04/20 03:36:35;;;;;;;13.65;8.85;;;;;12.60;101682.00;;;;5080783;28;20252;-78
2021/04/20 03:39:06;;;;;;;14.60;8.95;;;;;12.50;101679.00;;;;5069504;28;20746;-78
2021/04/20 03:41:39;;;;;;;10.65;7.40;;;;;12.50;101677.00;;;;5089148;28;20198;-78
2021/04/20 03:44:13;;;;;;;14.48;7.82;;;;;12.40;101671.00;;;;5090045;28;20252;-78
2021/04/20 03:46:44;;;;;;;13.18;8.13;;;;;12.40;101668.00;;;;5073451;28;20199;-79
2021/04/20 03:49:15;;;;;;;12.25;8.35;;;;;12.40;101666.00;;;;5069912;28;20207;-78
2021/04/20 03:51:44;;;;;;;13.05;8.95;;;;;12.30;101660.00;;;;5081985;28;20222;-78
2021/04/20 03:54:14;;;;;;;13.95;8.27;;;;;12.30;101666.00;;;;5089117;28;20202;-78
2021/04/20 03:56:46;;;;;;;12.95;7.95;;;;;12.20;101656.00;;;;5088442;28;20202;-78
2021/04/20 03:59:15;;;;;;;12.68;8.15;;;;;12.20;101661.00;;;;5090130;28;20653;-78
2021/04/20 04:01:43;;;;;;;12.25;8.45;;;;;12.20;101666.00;;;;5080599;28;20199;-78
2021/04/20 04:04:15;;;;;;;11.35;8.18;;;;;12.20;101660.00;;;;5070981;28;20206;-78
2021/04/20 04:06:43;;;;;;;13.95;9.00;;;;;12.20;101663.00;;;;5088513;28;20194;-78
2021/04/20 04:09:11;;;;;;;14.60;9.68;;;;;12.10;101662.00;;;;5089208;28;20519;-78
2021/04/20 04:11:44;;;;;;;13.90;9.05;;;;;12.10;101653.00;;;;5088236;28;20190;-79
2021/04/20 04:14:13;;;;;;;15.60;9.57;;;;;12.00;101654.00;;;;5086866;28;20195;-78
2021/04/20 04:16:43;;;;;;;14.70;9.27;;;;;12.00;101655.00;;;;5087900;28;20702;-78
2021/04/20 04:19:11;;;;;;;13.05;8.65;;;;;12.00;101650.00;;;;5089593;28;20226;-78
2021/04/20 04:21:43;;;;;;;12.43;8.60;;;;;12.00;101656.00;;;;5078744;28;20206;-78
2021/04/20 04:24:12;;;;;;;14.57;9.18;;;;;11.90;101655.00;;;;5070978;28;21039;-78
2021/04/20 04:26:42;;;;;;;13.98;8.48;;;;;11.90;101653.00;;;;5088486;28;20283;-78
2021/04/20 04:29:11;;;;;;;14.15;8.95;;;;;11.90;101655.00;;;;5088159;28;20715;-78
2021/04/20 04:31:42;;;;;;;12.38;8.55;;;;;11.80;101661.00;;;;5088795;28;20244;-78
2021/04/20 04:34:12;;;;;;;13.50;8.93;;;;;11.80;101654.00;;;;5087631;28;20718;-78
2021/04/20 04:36:41;;;;;;;15.90;8.77;;;;;11.80;101659.00;;;;5081867;28;20280;-78
2021/04/20 04:39:11;;;;;;;11.60;8.55;;;;;11.80;101658.00;;;;5087955;28;20236;-78
2021/04/20 04:41:38;;;;;;;13.38;8.23;;;;;11.80;101655.00;;;;5087234;28;20281;-78
2021/04/20 04:44:05;;;;;;;14.70;9.45;;;;;11.70;101664.00;;;;5074283;28;20230;-78
2021/04/20 04:46:33;;;;;;;13.77;8.77;;;;;11.70;101660.00;;;;5078724;28;20209;-78
2021/04/20 04:49:01;;;;;;;13.52;8.88;;;;;11.70;101649.00;;;;5074522;28;20506;-78
2021/04/20 04:51:29;;;;;;;14.27;9.02;;;;;11.70;101658.00;;;;5073371;28;20352;-78
2021/04/20 04:53:58;;;;;;;13.93;9.13;;;;;11.70;101664.00;;;;5083812;28;20198;-78
2021/04/20 04:56:25;;;;;;;14.52;8.10;;;;;11.70;101663.00;;;;5087567;28;20202;-78
2021/04/20 04:58:54;;;;;;;14.57;9.20;;;;;11.70;101662.00;;;;5082337;28;20226;-78
2021/04/20 05:01:23;;;;;;;13.95;8.77;;;;;11.70;101656.00;;;;5083693;28;20218;-78
2021/04/20 05:03:50;;;;;;;16.10;10.00;;;;;11.70;101668.00;;;;5080578;28;20191;-79
2021/04/20 05:06:18;;;;;;;13.98;9.10;;;;;11.70;101666.00;;;;5078215;28;20663;-79
2021/04/20 05:08:45;;;;;;;16.45;9.05;;;;;11.70;101667.00;;;;5071807;28;20194;-79
2021/04/20 05:11:14;;;;;;;17.67;10.07;;;;;11.70;101670.00;;;;5077293;28;20191;-78
2021/04/20 05:13:41;;;;;;;14.38;9.05;;;;;11.70;101667.00;;;;5076487;28;20198;-77
2021/04/20 05:16:09;;;;;;;17.50;10.57;;;;;11.70;101664.00;;;;5086164;28;20308;-78
2021/04/20 05:18:39;;;;;;;15.18;9.45;;;;;11.70;101662.00;;;;5077999;28;20858;-78
2021/04/20 05:21:07;;;;;;;15.20;9.80;;;;;11.80;101670.00;;;;5080139;28;20244;-76
2021/04/20 05:23:33;;;;;;;16.58;9.60;;;;;11.80;101668.00;;;;5086581;28;20198;-77
2021/04/20 05:26:00;;;;;;;17.52;10.38;;;;;11.80;101665.00;;;;5085089;28;20664;-77
2021/04/20 05:28:27;;;;;;;16.85;10.73;;;;;11.90;101668.00;;;;5087978;28;20213;-78
2021/04/20 05:30:56;;;;;;;17.13;10.50;;;;;11.90;101668.00;;;;5088070;28;20191;-77
2021/04/20 05:33:22;;;;;;;17.77;9.93;;;;;12.00;101677.00;;;;5088409;28;20202;-79
2021/04/20 05:35:49;;;;;;;17.38;11.93;;;;;12.00;101665.00;;;;5074669;28;20202;-79
2021/04/20 05:38:19;;;;;;;18.50;11.23;;;;;12.00;101671.00;;;;5068645;28;20207;-81
2021/04/20 05:40:46;;;;;;;16.60;10.57;;;;;12.10;101676.00;;;;5068459;28;20203;-81
2021/04/20 05:43:13;;;;;;;19.75;11.50;;;;;12.20;101673.00;;;;5079238;28;20565;-80
2021/04/20 05:45:40;;;;;;;17.55;10.70;;;;;12.20;101677.00;;;;5092036;28;20664;-78
2021/04/20 05:48:10;;;;;;;16.08;10.13;;;;;12.30;101672.00;;;;5092439;28;20202;-80
2021/04/20 05:50:37;;;;;;;21.30;11.70;;;;;12.40;101677.00;;;;5091696;28;20226;-77
2021/04/20 05:53:03;;;;;;;31.20;11.77;;;;;12.40;101673.00;;;;5092301;28;20524;-77
2021/04/20 05:55:31;;;;;;;19.73;12.32;;;;;12.50;101666.00;;;;5091271;28;20664;-77
2021/04/20 05:57:58;;;;;;;18.17;10.55;;;;;12.60;101676.00;;;;5091117;28;20710;-78
2021/04/20 06:00:25;;;;;;;17.70;11.13;;;;;12.60;101681.00;;;;5091221;28;20217;-81
2021/04/20 06:02:53;;;;;;;19.27;11.55;;;;;12.70;101676.00;;;;5092361;28;20271;-81
2021/04/20 06:05:23;;;;;;;27.30;11.77;;;;;12.80;101682.00;;;;5092244;28;20206;-81
2021/04/20 06:07:53;;;;;;;17.77;11.43;;;;;12.90;101680.00;;;;5092121;28;20202;-81
2021/04/20 06:10:20;;;;;;;18.02;10.80;;;;;12.90;101683.00;;;;5092664;28;20274;-81
2021/04/20 06:12:49;;;;;;;17.70;11.18;;;;;13.00;101677.00;;;;5091862;28;20609;-81
2021/04/20 06:15:18;;;;;;;17.90;11.13;;;;;13.10;101680.00;;;;5092028;28;20202;-81
2021/04/20 06:17:46;;;;;;;17.70;11.68;;;;;13.20;101681.00;;;;5092190;28;20206;-81
2021/04/20 06:20:15;;;;;;;18.98;11.75;;;;;13.20;101688.00;;;;5091729;28;20233;-81
2021/04/20 06:22:46;;;;;;;16.05;9.93;;;;;13.30;101676.00;;;;5092286;28;20206;-81
2021/04/20 06:25:14;;;;;;;18.83;11.05;;;;;13.40;101685.00;;;;5091060;28;20206;-81
2021/04/20 06:27:41;;;;;;;18.48;11.85;;;;;13.50;101683.00;;;;5092463;28;20251;-81
2021/04/20 06:30:11;;;;;;;17.73;12.02;;;;;13.60;101693.00;;;;5091772;28;20220;-81
2021/04/20 06:32:38;;;;;;;16.75;11.00;;;;;13.70;101689.00;;;;5091569;28;20198;-81
2021/04/20 06:35:06;;;;;;;17.95;11.63;;;;;13.80;101689.00;;;;5090626;28;20202;-81
2021/04/20 06:37:36;;;;;;;16.88;11.50;;;;;13.90;101687.00;;;;5092445;28;20198;-81
2021/04/20 06:40:05;;;;;;;19.23;12.00;;;;;13.90;101690.00;;;;5091536;28;20627;-81
2021/04/20 06:42:36;;;;;;;18.40;12.45;;;;;14.10;101688.00;;;;5091959;28;20602;-81
2021/04/20 06:45:09;;;;;;;17.42;11.73;;;;;14.10;101690.00;;;;5091011;28;20191;-81
2021/04/20 06:47:43;;;;;;;18.52;11.75;;;;;14.30;101682.00;;;;5091980;28;20194;-81
2021/04/20 06:50:12;;;;;;;18.45;11.65;;;;;14.40;101680.00;;;;5091117;28;20232;-81
2021/04/20 06:52:48;;;;;;;16.45;11.35;;;;;14.50;101682.00;;;;5091191;28;20209;-81
2021/04/20 06:55:23;;;;;;;17.02;11.23;;;;;14.60;101675.00;;;;5087295;28;20206;-81
2021/04/20 06:57:59;;;;;;;19.15;12.35;;;;;14.70;101685.00;;;;5080314;28;20200;-81
2021/04/20 07:00:30;;;;;;;17.83;11.88;;;;;14.80;101681.00;;;;5077345;28;20325;-81
2021/04/20 07:03:00;;;;;;;19.67;12.93;;;;;15.00;101683.00;;;;5089322;28;20205;-81
2021/04/20 07:05:32;;;;;;;16.50;11.00;;;;;15.10;101684.00;;;;5091135;28;20196;-81
2021/04/20 07:08:17;;;;;;;17.33;10.70;;;;;15.10;101690.00;;;;5090873;28;20202;-81
2021/04/20 07:10:45;;;;;;;17.73;11.32;;;;;15.30;101685.00;;;;5091557;28;20205;-81
2021/04/20 07:13:16;;;;;;;18.75;12.40;;;;;15.40;101690.00;;;;5090489;28;20636;-79
2021/04/20 07:15:48;;;;;;;17.10;11.80;;;;;15.50;101693.00;;;;5086788;28;20209;-81
2021/04/20 07:18:57;;;;;;;16.30;11.23;;;;;15.60;101690.00;;;;5082225;28;20217;-82
2021/04/20 07:21:54;;;;;;;16.27;11.38;;;;;15.70;101689.00;;;;5070743;28;20211;-83
2021/04/20 07:24:24;;;;;;;17.10;11.98;;;;;15.90;101686.00;;;;5071086;28;20207;-83
2021/04/20 07:27:12;;;;;;;17.17;12.15;;;;;16.00;101684.00;;;;5078263;28;20552;-82
2021/04/20 07:29:50;;;;;;;15.48;10.88;;;;;16.10;101687.00;;;;5090587;28;20579;-81
2021/04/20 07:32:32;;;;;;;18.80;12.52;;;;;16.20;101689.00;;;;5091106;28;20194;-82
2021/04/20 07:35:14;;;;;;;15.57;10.60;;;;;16.30;101688.00;;;;5089793;28;20617;-82
2021/04/20 07:37:44;;;;;;;15.90;11.30;;;;;16.50;101684.00;;;;5089639;28;20191;-82
2021/04/20 07:40:26;;;;;;;15.07;11.23;;;;;16.60;101688.00;;;;5089424;28;20229;-82
2021/04/20 07:43:24;;;;;;;15.77;11.57;;;;;16.70;101688.00;;;;5089038;28;20820;-82
2021/04/20 07:45:56;;;;;;;15.15;10.90;;;;;16.90;101688.00;;;;5046421;28;20644;-83
2021/04/20 07:48:35;;;;;;;16.48;11.10;;;;;17.00;101692.00;;;;5088678;28;20190;-83
2021/04/20 07:51:09;;;;;;;15.88;11.38;;;;;17.10;101695.00;;;;5087777;28;20659;-82
2021/04/20 07:53:41;;;;;;;15.35;10.30;;;;;17.20;101688.00;;;;5089356;28;20545;-82
2021/04/20 07:56:13;;;;;;;19.60;10.65;;;;;17.30;101695.00;;;;5089520;28;20560;-82
2021/04/20 07:58:45;;;;;;;15.02;11.05;;;;;17.40;101690.00;;;;5088361;28;20222;-82
2021/04/20 08:01:25;;;;;;;17.50;11.63;;;;;17.50;101693.00;;;;5089098;28;20222;-83
2021/04/20 08:03:59;;;;;;;16.05;11.38;;;;;17.60;101690.00;;;;5088018;28;20194;-82
2021/04/20 08:06:28;;;;;;;15.10;10.77;;;;;17.80;101687.00;;;;5089476;28;20194;-83
2021/04/20 08:09:01;;;;;;;15.60;10.77;;;;;17.90;101691.00;;;;5088378;28;20213;-82
2021/04/20 08:11:32;;;;;;;14.00;10.25;;;;;18.00;101688.00;;;;5084121;28;20198;-83
2021/04/20 08:14:08;;;;;;;15.50;10.90;;;;;18.10;101691.00;;;;5082045;28;20211;-83
2021/04/20 08:16:38;;;;;;;17.85;10.95;;;;;18.20;101693.00;;;;5089163;28;20190;-83
2021/04/20 08:19:11;;;;;;;16.92;12.35;;;;;18.30;101689.00;;;;5070240;28;20227;-83
2021/04/20 08:21:42;;;;;;;13.25;9.93;;;;;18.50;101687.00;;;;5079417;28;20561;-83
2021/04/20 08:24:16;;;;;;;15.63;11.35;;;;;18.50;101692.00;;;;5089030;28;20292;-83
2021/04/20 08:26:46;;;;;;;14.05;10.30;;;;;18.70;101688.00;;;;5080420;28;20198;-83
2021/04/20 08:29:22;;;;;;;15.15;10.55;;;;;18.80;101682.00;;;;5068951;28;20660;-82
2021/04/20 08:31:51;;;;;;;13.65;10.82;;;;;18.90;101689.00;;;;5076687;28;20204;-83
2021/04/20 08:34:25;;;;;;;14.73;10.77;;;;;19.00;101682.00;;;;5081859;28;20202;-84
2021/04/20 08:37:10;;;;;;;15.93;10.82;;;;;19.00;101679.00;;;;5087877;28;20202;-82
2021/04/20 08:39:46;;;;;;;14.25;9.95;;;;;19.20;101679.00;;;;5092066;28;20218;-82
2021/04/20 08:42:19;;;;;;;13.05;9.90;;;;;19.30;101678.00;;;;5083785;28;20202;-83
2021/04/20 08:44:54;;;;;;;15.43;10.00;;;;;19.40;101680.00;;;;5086309;28;20289;-82
2021/04/20 08:47:26;;;;;;;13.95;9.77;;;;;19.50;101682.00;;;;5087464;28;20206;-83
2021/04/20 08:50:03;;;;;;;10.95;8.50;;;;;19.70;101682.00;;;;5084930;28;20749;-81
2021/04/20 08:52:48;;;;;;;10.85;8.48;;;;;19.80;101675.00;;;;5092568;28;20667;-82
2021/04/20 08:55:35;;;;;;;11.25;8.15;;;;;19.90;101674.00;;;;5093862;28;20205;-82
2021/04/20 08:58:40;;;;;;;10.07;7.78;;;;;20.00;101677.00;;;;5089188;28;20744;-83
2021/04/20 09:01:20;;;;;;;12.15;8.80;;;;;20.10;101675.00;;;;5007285;28;20216;-83
2021/04/20 09:04:01;;;;;;;14.43;9.25;;;;;20.30;101672.00;;;;5060910;28;20214;-83
2021/04/20 09:06:33;;;;;;;13.27;9.45;;;;;20.40;101675.00;;;;5088391;28;20200;-82
2021/04/20 09:09:05;;;;;;;11.73;9.50;;;;;20.50;101680.00;;;;5088709;28;20205;-82
2021/04/20 09:11:36;;;;;;;13.07;9.68;;;;;20.60;101683.00;;;;5089200;28;20190;-82
2021/04/20 09:14:08;;;;;;;13.68;10.05;;;;;20.70;101677.00;;;;5090291;28;20277;-81
2021/04/20 09:16:50;;;;;;;14.25;10.25;;;;;20.80;101679.00;;;;5084990;28;20677;-82
2021/04/20 09:19:21;;;;;;;13.18;10.10;;;;;20.90;101675.00;;;;5076936;28;20620;-82
2021/04/20 09:21:58;;;;;;;13.30;9.55;;;;;21.00;101678.00;;;;5089426;28;20190;-82
2021/04/20 09:24:34;;;;;;;13.57;10.18;;;;;21.10;101680.00;;;;5088491;28;20198;-83
2021/04/20 09:27:09;;;;;;;11.55;9.27;;;;;21.20;101676.00;;;;5088524;28;20194;-82
2021/04/20 09:29:40;;;;;;;10.70;9.02;;;;;21.40;101677.00;;;;5079580;28;20198;-83
2021/04/20 09:32:14;;;;;;;14.85;10.88;;;;;21.50;101675.00;;;;5087810;28;20703;-83
2021/04/20 09:34:43;;;;;;;14.60;10.98;;;;;21.60;101681.00;;;;5088865;28;20208;-84
2021/04/20 09:37:11;;;;;;;12.45;8.70;;;;;21.70;101675.00;;;;5081820;28;20748;-83
2021/04/20 09:39:42;;;;;;;13.95;10.05;;;;;21.80;101686.00;;;;5068259;28;20227;-83
2021/04/20 09:42:12;;;;;;;11.27;9.18;;;;;21.90;101680.00;;;;5083844;28;20259;-82
2021/04/20 09:44:51;;;;;;;10.57;8.75;;;;;22.00;101682.00;;;;5088956;28;20205;-83
2021/04/20 09:47:43;;;;;;;9.80;7.93;;;;;22.00;101676.00;;;;5088252;28;20190;-83
2021/04/20 09:50:16;;;;;;;11.18;8.73;;;;;22.20;101679.00;;;;5084883;28;20241;-83
2021/04/20 09:53:02;;;;;;;11.02;7.43;;;;;22.30;101688.00;;;;5088062;28;20195;-83
2021/04/20 09:55:33;;;;;;;10.77;8.02;;;;;22.50;101689.00;;;;5088132;28;20275;-84
2021/04/20 09:58:01;;;;;;;12.13;8.93;;;;;22.50;101680.00;;;;5071911;28;20276;-82
2021/04/20 10:00:28;;;;;;;11.32;9.07;;;;;22.60;101682.00;;;;5089218;28;20225;-83
2021/04/20 10:03:22;;;;;;;9.15;7.22;;;;;22.50;101682.00;;;;5087825;28;20194;-83
2021/04/20 10:06:10;;;;;;;9.88;7.78;;;;;22.50;101682.00;;;;5087333;28;20234;-82
2021/04/20 10:08:55;;;;;;;10.07;7.78;;;;;22.50;101678.00;;;;5088360;28;20198;-83
2021/04/20 10:11:28;;;;;;;11.68;8.43;;;;;22.60;101682.00;;;;5088856;28;20635;-83
2021/04/20 10:14:12;;;;;;;12.48;9.00;;;;;22.50;101681.00;;;;5087827;28;20198;-83
2021/04/20 10:16:50;;;;;;;10.63;7.65;;;;;22.60;101682.00;;;;5087409;28;20232;-83
2021/04/20 10:19:24;;;;;;;8.20;7.13;;;;;22.60;101685.00;;;;5087860;28;20218;-83
2021/04/20 10:22:02;;;;;;;9.63;7.40;;;;;22.60;101683.00;;;;5087578;28;20547;-84
2021/04/20 10:24:32;;;;;;;8.80;6.85;;;;;22.70;101680.00;;;;5085583;28;20190;-83
2021/04/20 10:27:02;;;;;;;9.88;8.27;;;;;22.70;101678.00;;;;5088236;28;20551;-83
2021/04/20 10:29:35;;;;;;;8.82;6.82;;;;;22.70;101670.00;;;;5091966;28;20198;-84
2021/04/20 10:32:07;;;;;;;8.73;7.18;;;;;22.80;101679.00;;;;5079236;28;20474;-84
2021/04/20 10:34:37;;;;;;;8.65;7.35;;;;;22.70;101680.00;;;;5091264;28;20195;-84
2021/04/20 10:37:04;;;;;;;9.93;8.20;;;;;22.80;101678.00;;;;5091717;28;20202;-83
2021/04/20 10:39:32;;;;;;;10.07;7.55;;;;;22.80;101675.00;;;;5091556;28;20288;-83
2021/04/20 10:41:59;;;;;;;9.38;7.95;;;;;22.80;101668.00;;;;5092036;28;20201;-84
2021/04/20 10:44:31;;;;;;;9.65;7.68;;;;;22.80;101670.00;;;;5091763;28;20187;-84
2021/04/20 10:46:59;;;;;;;11.02;7.43;;;;;22.80;101674.00;;;;5080487;28;20209;-83
2021/04/20 10:49:29;;;;;;;8.98;7.40;;;;;22.80;101664.00;;;;5091705;28;20206;-83
2021/04/20 10:51:58;;;;;;;8.32;7.03;;;;;22.80;101663.00;;;;5091156;28;20226;-83
2021/04/20 10:54:31;;;;;;;9.45;7.53;;;;;22.80;101666.00;;;;5091441;28;20259;-83
2021/04/20 10:56:59;;;;;;;8.38;7.10;;;;;22.80;101658.00;;;;5089705;28;20225;-83
2021/04/20 10:59:29;;;;;;;9.32;6.75;;;;;22.90;101656.00;;;;5090882;28;20225;-83
2021/04/20 11:01:59;;;;;;;8.48;7.25;;;;;22.90;101651.00;;;;5090169;28;20244;-83
2021/04/20 11:04:29;;;;;;;8.30;7.20;;;;;23.00;101653.00;;;;5089056;28;20194;-83
2021/04/20 11:07:21;;;;;;;10.27;7.90;;;;;22.90;101654.00;;;;5089592;28;20203;-84
2021/04/20 11:09:55;;;;;;;10.27;8.05;;;;;23.10;101646.00;;;;5090243;28;20661;-82
2021/04/20 11:12:23;;;;;;;9.57;7.53;;;;;23.10;101641.00;;;;5076245;28;20766;-83
2021/04/20 11:14:52;;;;;;;9.40;7.45;;;;;23.20;101651.00;;;;5078471;28;20202;-84
2021/04/20 11:17:32;;;;;;;10.65;7.97;;;;;23.20;101652.00;;;;5087016;28;20190;-83
2021/04/20 11:20:06;;;;;;;9.02;7.35;;;;;23.20;101649.00;;;;5070117;28;20226;-83
2021/04/20 11:22:38;;;;;;;9.50;7.63;;;;;23.20;101639.00;;;;5074448;28;20277;-82
2021/04/20 11:25:16;;;;;;;13.02;8.75;;;;;23.20;101640.00;;;;5092395;28;20202;-82
2021/04/20 11:27:46;;;;;;;9.98;8.07;;;;;23.30;101642.00;;;;5072349;28;20664;-82
2021/04/20 11:30:16;;;;;;;8.93;7.95;;;;;23.30;101638.00;;;;5080643;28;20198;-82
2021/04/20 11:32:49;;;;;;;9.88;7.35;;;;;23.30;101635.00;;;;5081894;28;20194;-83
2021/04/20 11:35:20;;;;;;;8.35;7.13;;;;;23.30;101639.00;;;;5070660;28;20256;-82
2021/04/20 11:37:48;;;;;;;10.02;7.93;;;;;23.40;101631.00;;;;5079012;28;20198;-83
2021/04/20 11:40:25;;;;;;;9.27;7.55;;;;;23.40;101629.00;;;;5088387;28;20214;-84
2021/04/20 11:42:55;;;;;;;10.45;7.85;;;;;23.50;101629.00;;;;5079318;28;20655;-84
2021/04/20 11:45:24;;;;;;;8.82;7.03;;;;;23.50;101631.00;;;;5090747;28;20224;-84
2021/04/20 11:47:56;;;;;;;9.77;7.68;;;;;23.60;101626.00;;;;5089739;28;20667;-85
2021/04/20 11:50:25;;;;;;;9.05;7.93;;;;;23.70;101624.00;;;;5082314;28;20223;-83
2021/04/20 11:53:04;;;;;;;8.70;7.10;;;;;23.80;101623.00;;;;5082114;28;20623;-83
2021/04/20 11:55:34;;;;;;;10.52;7.70;;;;;24.00;101617.00;;;;5089951;28;20209;-82
2021/04/20 11:58:04;;;;;;;9.18;7.65;;;;;24.20;101613.00;;;;5089647;28;20206;-82
2021/04/20 12:00:32;;;;;;;8.68;7.55;;;;;24.40;101609.00;;;;5083873;28;20231;-82
2021/04/20 12:03:08;;;;;;;9.68;7.45;;;;;24.50;101606.00;;;;5078981;28;20199;-82
2021/04/20 12:05:36;;;;;;;9.75;8.07;;;;;24.70;101608.00;;;;5088090;28;20201;-82
2021/04/20 12:08:03;;;;;;;8.43;7.57;;;;;24.90;101600.00;;;;5082072;28;20252;-83
2021/04/20 12:10:31;;;;;;;8.32;7.13;;;;;25.10;101609.00;;;;5080563;28;20203;-84
2021/04/20 12:13:00;;;;;;;9.45;7.82;;;;;25.30;101601.00;;;;5088587;28;20198;-84
2021/04/20 12:15:29;;;;;;;9.02;7.80;;;;;25.40;101606.00;;;;5081651;28;20390;-83
2021/04/20 12:17:57;;;;;;;8.27;7.28;;;;;25.50;101600.00;;;;5079189;28;20211;-85